Time;durP1;ratioP1;P1;durP2;ratioP2;P2;SDS_P1;SDS_P2;PMS_P1;PMS_P2;Temp;Humidity;BMP_temperature;BMP_pressure;BME280_temperature;BME280_humidity;BME280_pressure;Samples;Min_cycle;Max_cycle;Signal;HPM_P1;HPM_P2
2022/03/05 00:00:12;;;;;;;19.27;11.53;;;6.50;59.30;;;;;;5041033;28;20253;-70
2022/03/05 00:02:38;;;;;;;20.43;11.50;;;6.40;59.30;;;;;;5037756;28;20798;-69
2022/03/05 00:05:04;;;;;;;19.90;11.23;;;6.30;59.50;;;;;;5037002;28;20446;-71
2022/03/05 00:07:30;;;;;;;17.20;11.40;;;6.40;59.50;;;;;;5037999;28;20842;-68
2022/03/05 00:09:56;;;;;;;17.23;10.70;;;6.50;59.50;;;;;;5042855;28;20831;-68
2022/03/05 00:12:22;;;;;;;18.10;11.83;;;6.40;59.50;;;;;;5040175;28;20211;-68
2022/03/05 00:14:48;;;;;;;21.10;12.40;;;6.40;59.60;;;;;;5037808;28;20438;-69
2022/03/05 00:17:13;;;;;;;22.60;12.47;;;6.40;59.50;;;;;;5038293;28;20852;-69
2022/03/05 00:19:39;;;;;;;21.40;12.10;;;6.40;59.50;;;;;;5039152;28;20211;-69
2022/03/05 00:22:05;;;;;;;21.37;13.17;;;6.40;59.50;;;;;;5037939;28;20226;-68
2022/03/05 00:24:31;;;;;;;19.10;12.27;;;6.20;59.90;;;;;;5038445;28;20454;-69
2022/03/05 00:26:56;;;;;;;20.57;12.43;;;6.20;59.90;;;;;;5038861;28;20222;-69
2022/03/05 00:29:22;;;;;;;18.60;12.30;;;6.20;59.90;;;;;;5038083;28;20235;-68
2022/03/05 00:31:48;;;;;;;19.33;12.83;;;6.30;59.70;;;;;;5035787;28;20185;-69
2022/03/05 00:34:13;;;;;;;17.13;11.87;;;6.30;59.70;;;;;;5038814;28;20192;-67
2022/03/05 00:36:39;;;;;;;19.10;11.10;;;6.20;59.90;;;;;;5037542;28;20225;-68
2022/03/05 00:39:05;;;;;;;19.80;11.23;;;6.30;59.80;;;;;;5037104;28;20211;-68
2022/03/05 00:41:31;;;;;;;18.97;11.83;;;6.30;59.80;;;;;;5037104;28;20188;-68
2022/03/05 00:43:56;;;;;;;15.20;10.90;;;6.10;60.30;;;;;;5037300;28;21026;-67
2022/03/05 00:46:22;;;;;;;20.10;12.13;;;6.10;60.10;;;;;;5033262;28;20217;-66
2022/03/05 00:48:47;;;;;;;19.67;11.10;;;6.10;59.90;;;;;;5037277;28;20207;-67
2022/03/05 00:51:13;;;;;;;19.67;12.73;;;6.10;60.10;;;;;;5038982;28;20277;-67
2022/03/05 00:53:39;;;;;;;23.20;13.00;;;6.10;60.10;;;;;;5037558;28;20199;-67
2022/03/05 00:56:04;;;;;;;18.57;12.23;;;6.00;60.30;;;;;;5037771;28;20194;-67
2022/03/05 00:58:30;;;;;;;17.67;11.03;;;6.00;60.40;;;;;;5039101;28;20514;-67
2022/03/05 01:00:56;;;;;;;19.63;11.50;;;6.00;60.00;;;;;;5040198;28;20230;-68
2022/03/05 01:03:22;;;;;;;19.80;12.17;;;5.80;60.90;;;;;;5038730;28;20191;-68
2022/03/05 01:05:48;;;;;;;20.30;11.97;;;6.00;60.80;;;;;;5036732;28;20180;-67
2022/03/05 01:08:13;;;;;;;17.53;11.37;;;6.00;60.50;;;;;;5038257;28;20512;-66
2022/03/05 01:10:39;;;;;;;20.00;11.30;;;6.00;60.40;;;;;;5038943;28;20603;-66
2022/03/05 01:13:05;;;;;;;16.23;11.60;;;6.00;60.50;;;;;;5040931;28;20191;-67
2022/03/05 01:15:30;;;;;;;16.13;10.20;;;5.80;60.90;;;;;;5040110;28;20195;-66
2022/03/05 01:17:56;;;;;;;21.40;12.43;;;5.70;61.20;;;;;;5035801;28;20180;-67
2022/03/05 01:20:22;;;;;;;21.33;12.40;;;5.80;61.30;;;;;;5043514;28;20272;-68
2022/03/05 01:22:47;;;;;;;22.47;12.13;;;6.00;61.00;;;;;;5042070;28;20283;-68
2022/03/05 01:25:13;;;;;;;17.47;11.20;;;6.00;60.70;;;;;;5041355;28;20195;-67
2022/03/05 01:27:38;;;;;;;19.33;12.20;;;5.90;60.40;;;;;;5042068;28;20208;-69
2022/03/05 01:30:04;;;;;;;21.03;11.63;;;6.00;60.40;;;;;;5043177;28;20641;-68
2022/03/05 01:32:30;;;;;;;18.07;13.17;;;5.80;60.60;;;;;;5042535;28;20196;-69
2022/03/05 01:34:55;;;;;;;21.00;13.33;;;5.60;60.90;;;;;;5042030;28;20867;-68
2022/03/05 01:37:21;;;;;;;21.40;12.43;;;5.50;62.80;;;;;;5040095;28;20220;-68
2022/03/05 01:39:47;;;;;;;23.87;13.20;;;5.60;61.60;;;;;;5043989;28;20208;-68
2022/03/05 01:42:12;;;;;;;20.97;12.07;;;5.70;61.50;;;;;;5039564;28;20813;-69
2022/03/05 01:44:38;;;;;;;20.67;12.37;;;5.70;61.60;;;;;;5026234;28;21192;-68
2022/03/05 01:47:05;;;;;;;20.53;10.80;;;5.70;61.20;;;;;;5039521;28;20212;-69
2022/03/05 01:49:30;;;;;;;21.00;12.40;;;5.40;61.50;;;;;;5039531;28;20626;-69
2022/03/05 01:51:57;;;;;;;21.87;12.97;;;5.50;61.70;;;;;;5041584;28;20418;-68
2022/03/05 01:54:24;;;;;;;18.07;11.80;;;5.60;62.10;;;;;;5042754;28;20196;-68
2022/03/05 01:56:50;;;;;;;16.33;11.90;;;5.70;61.60;;;;;;5040837;28;20446;-67
2022/03/05 01:59:16;;;;;;;17.40;10.90;;;5.70;61.80;;;;;;5043009;28;20454;-67
2022/03/05 02:01:42;;;;;;;16.80;11.10;;;5.70;61.60;;;;;;5041895;28;20476;-68
2022/03/05 02:04:08;;;;;;;18.40;11.50;;;5.50;62.20;;;;;;5039359;28;20964;-68
2022/03/05 02:06:34;;;;;;;18.77;11.83;;;5.50;62.50;;;;;;5037580;28;20198;-67
2022/03/05 02:09:00;;;;;;;16.83;11.70;;;5.60;62.10;;;;;;5044358;28;20207;-69
2022/03/05 02:11:26;;;;;;;19.00;11.67;;;5.60;62.40;;;;;;5040972;28;20442;-68
2022/03/05 02:13:53;;;;;;;16.00;11.20;;;5.60;62.20;;;;;;5039982;28;20469;-68
2022/03/05 02:16:21;;;;;;;18.50;11.30;;;5.40;62.20;;;;;;5041805;28;20804;-67
2022/03/05 02:18:48;;;;;;;17.20;11.00;;;5.40;62.80;;;;;;5038841;28;20483;-67
2022/03/05 02:21:15;;;;;;;18.27;11.20;;;5.40;61.70;;;;;;5039753;28;20814;-68
2022/03/05 02:23:41;;;;;;;21.77;11.80;;;5.30;63.00;;;;;;5041303;28;20445;-68
2022/03/05 02:26:07;;;;;;;16.90;11.63;;;5.30;63.10;;;;;;5040800;28;20570;-67
2022/03/05 02:28:33;;;;;;;17.30;11.50;;;5.20;63.20;;;;;;5042891;28;20571;-68
2022/03/05 02:31:00;;;;;;;18.23;11.67;;;5.20;63.80;;;;;;5038108;28;20445;-68
2022/03/05 02:33:26;;;;;;;16.27;11.00;;;5.20;63.10;;;;;;5042043;28;20819;-68
2022/03/05 02:35:52;;;;;;;21.13;11.90;;;5.30;62.70;;;;;;5041531;28;20920;-67
2022/03/05 02:38:20;;;;;;;17.07;10.47;;;5.40;62.50;;;;;;5041919;28;20435;-68
2022/03/05 02:40:47;;;;;;;15.00;9.50;;;5.30;62.60;;;;;;5038110;28;20314;-68
2022/03/05 02:43:13;;;;;;;15.50;10.67;;;5.30;62.60;;;;;;5041952;28;20850;-68
2022/03/05 02:45:39;;;;;;;15.73;10.83;;;5.30;62.70;;;;;;5042754;28;20455;-68
2022/03/05 02:48:09;;;;;;;16.47;11.30;;;5.10;63.00;;;;;;5039040;28;20502;-68
2022/03/05 02:50:35;;;;;;;16.13;11.10;;;5.20;62.70;;;;;;5037141;28;20458;-69
2022/03/05 02:53:01;;;;;;;17.50;10.30;;;5.30;62.70;;;;;;5039571;28;20434;-68
2022/03/05 02:55:26;;;;;;;16.13;11.23;;;5.20;62.80;;;;;;5039121;28;20480;-68
2022/03/05 02:57:52;;;;;;;19.67;12.33;;;5.10;63.30;;;;;;5041130;28;20537;-69
2022/03/05 03:00:18;;;;;;;16.73;10.83;;;5.20;63.50;;;;;;5043302;28;20208;-69
2022/03/05 03:02:45;;;;;;;15.90;10.80;;;5.20;63.10;;;;;;5040923;28;20547;-69
2022/03/05 03:05:11;;;;;;;15.50;10.30;;;5.20;63.70;;;;;;5039993;28;20853;-69
2022/03/05 03:07:37;;;;;;;17.53;11.50;;;5.10;63.60;;;;;;5038732;28;20484;-68
2022/03/05 03:10:07;;;;;;;17.67;10.70;;;4.80;64.10;;;;;;5025230;28;20472;-68
2022/03/05 03:12:33;;;;;;;19.70;12.10;;;4.90;64.80;;;;;;5043222;28;20172;-68
2022/03/05 03:14:59;;;;;;;21.47;11.30;;;4.90;64.40;;;;;;5040070;28;20517;-68
2022/03/05 03:17:24;;;;;;;18.03;10.23;;;5.00;64.50;;;;;;5040231;28;20798;-67
2022/03/05 03:19:50;;;;;;;19.00;12.23;;;5.10;65.40;;;;;;5039936;28;20578;-68
2022/03/05 03:22:16;;;;;;;18.13;10.83;;;4.90;64.50;;;;;;5036774;28;20890;-68
2022/03/05 03:24:42;;;;;;;23.93;11.17;;;4.80;64.80;;;;;;5038572;28;20183;-68
2022/03/05 03:27:08;;;;;;;18.43;12.10;;;4.80;65.00;;;;;;5038168;28;20887;-69
2022/03/05 03:29:34;;;;;;;19.50;11.50;;;5.00;64.90;;;;;;5039414;28;20442;-69
2022/03/05 03:32:00;;;;;;;18.40;10.93;;;5.00;64.40;;;;;;5040021;28;20207;-69
2022/03/05 03:34:25;;;;;;;15.73;10.23;;;4.70;65.10;;;;;;5040468;28;20433;-69
2022/03/05 03:36:51;;;;;;;16.13;10.10;;;4.80;65.20;;;;;;5021802;28;20551;-68
2022/03/05 03:39:17;;;;;;;18.70;11.17;;;4.70;65.60;;;;;;5041640;28;20214;-68
2022/03/05 03:41:42;;;;;;;17.47;11.17;;;4.50;66.30;;;;;;5038497;28;20179;-68
2022/03/05 03:44:08;;;;;;;14.37;10.60;;;4.70;66.30;;;;;;5038837;28;20180;-67
2022/03/05 03:46:34;;;;;;;17.50;11.00;;;4.70;65.90;;;;;;5039070;28;20218;-68
2022/03/05 03:48:59;;;;;;;16.87;10.53;;;4.70;65.90;;;;;;5040187;28;20844;-69
2022/03/05 03:51:25;;;;;;;17.63;11.90;;;4.80;65.90;;;;;;5039668;28;20658;-68
2022/03/05 03:53:51;;;;;;;17.00;11.33;;;4.70;65.40;;;;;;5038014;28;20230;-68
2022/03/05 03:56:16;;;;;;;16.43;11.30;;;4.60;66.20;;;;;;5035158;28;21564;-69
2022/03/05 03:58:42;;;;;;;22.70;11.37;;;4.80;66.20;;;;;;5039316;28;20212;-69
2022/03/05 04:01:08;;;;;;;17.73;11.50;;;4.70;66.10;;;;;;5036824;28;20269;-68
2022/03/05 04:03:33;;;;;;;16.87;9.57;;;4.70;66.20;;;;;;5036245;28;20291;-69
2022/03/05 04:05:59;;;;;;;16.53;11.17;;;4.60;66.80;;;;;;5036741;28;20220;-68
2022/03/05 04:08:43;;;;;;;16.80;10.83;;;4.30;67.40;;;;;;5041035;28;21610;-67
2022/03/05 04:11:18;;;;;;;14.57;9.73;;;4.50;67.50;;;;;;5040264;28;20281;-68
2022/03/05 04:13:48;;;;;;;19.63;10.20;;;4.60;67.30;;;;;;5038349;28;20419;-68
2022/03/05 04:16:14;;;;;;;19.20;10.20;;;4.30;67.60;;;;;;5025371;28;20473;-69
2022/03/05 04:18:40;;;;;;;21.43;11.53;;;4.50;67.70;;;;;;5038956;28;20517;-69
2022/03/05 04:21:09;;;;;;;18.07;11.30;;;4.50;67.50;;;;;;5037328;28;20925;-69
2022/03/05 04:23:34;;;;;;;19.30;10.10;;;4.60;67.70;;;;;;5040307;28;20430;-69
2022/03/05 04:26:00;;;;;;;19.93;11.50;;;4.50;67.70;;;;;;5036272;28;20874;-69
2022/03/05 04:28:26;;;;;;;16.40;9.53;;;4.50;68.10;;;;;;5038403;28;20581;-68
2022/03/05 04:30:52;;;;;;;13.80;9.33;;;4.60;67.80;;;;;;5039545;28;20453;-67
2022/03/05 04:33:17;;;;;;;17.93;11.07;;;4.60;67.70;;;;;;5040300;28;20180;-68
2022/03/05 04:35:43;;;;;;;15.10;9.93;;;4.40;68.20;;;;;;5040495;28;20430;-68
2022/03/05 04:38:09;;;;;;;19.63;10.30;;;4.20;68.70;;;;;;5039401;28;20198;-68
2022/03/05 04:40:35;;;;;;;15.90;10.53;;;4.40;69.40;;;;;;5036201;28;20997;-68
2022/03/05 04:43:01;;;;;;;15.77;10.80;;;4.50;69.10;;;;;;5037648;28;20220;-69
2022/03/05 04:45:27;;;;;;;13.00;9.17;;;4.50;68.80;;;;;;5037393;28;20465;-68
2022/03/05 04:47:53;;;;;;;14.80;10.70;;;4.50;69.80;;;;;;5039027;28;20580;-69
2022/03/05 04:50:19;;;;;;;16.00;10.63;;;4.60;68.90;;;;;;5039294;28;20200;-69
2022/03/05 04:52:44;;;;;;;14.97;10.00;;;4.50;68.90;;;;;;5038014;28;20435;-68
2022/03/05 04:55:10;;;;;;;17.40;10.13;;;4.50;68.90;;;;;;5037726;28;20430;-69
2022/03/05 04:57:36;;;;;;;17.03;10.40;;;4.40;69.30;;;;;;5034288;28;20691;-69
2022/03/05 05:00:07;;;;;;;14.47;10.43;;;4.30;69.60;;;;;;5039219;28;20211;-69
2022/03/05 05:02:33;;;;;;;16.90;11.87;;;4.40;69.60;;;;;;5038402;28;20199;-69
2022/03/05 05:04:59;;;;;;;16.17;10.40;;;4.50;69.60;;;;;;5037951;28;20431;-68
2022/03/05 05:07:25;;;;;;;19.67;11.50;;;4.30;69.40;;;;;;5037701;28;20572;-68
2022/03/05 05:09:50;;;;;;;17.83;11.10;;;4.50;69.90;;;;;;5021272;28;20457;-68
2022/03/05 05:12:16;;;;;;;14.10;9.70;;;4.50;69.80;;;;;;5039192;28;20656;-68
2022/03/05 05:14:42;;;;;;;15.80;10.37;;;4.30;70.60;;;;;;5038626;28;20195;-68
2022/03/05 05:17:07;;;;;;;15.83;10.20;;;4.30;70.50;;;;;;5024878;28;20192;-68
2022/03/05 05:19:33;;;;;;;17.20;11.20;;;4.30;70.50;;;;;;5039794;28;20207;-67
2022/03/05 05:22:01;;;;;;;15.00;9.40;;;4.20;70.80;;;;;;5037945;28;20214;-68
2022/03/05 05:24:30;;;;;;;19.53;11.50;;;4.00;71.40;;;;;;5036872;28;20192;-68
2022/03/05 05:26:56;;;;;;;15.40;10.30;;;4.00;71.90;;;;;;5035869;28;20430;-68
2022/03/05 05:29:22;;;;;;;15.93;11.00;;;3.90;72.00;;;;;;5033647;28;20473;-69
2022/03/05 05:31:49;;;;;;;17.93;10.90;;;4.00;72.00;;;;;;5037380;28;20492;-68
2022/03/05 05:34:15;;;;;;;21.20;9.93;;;4.00;72.30;;;;;;5038040;28;20437;-67
2022/03/05 05:36:41;;;;;;;18.03;11.70;;;4.10;72.20;;;;;;5034667;28;20489;-69
2022/03/05 05:39:08;;;;;;;17.57;11.10;;;4.10;72.10;;;;;;5037291;28;20699;-67
2022/03/05 05:41:35;;;;;;;17.43;10.20;;;4.30;71.80;;;;;;5039955;28;20192;-67
2022/03/05 05:44:01;;;;;;;23.00;10.60;;;4.00;72.20;;;;;;5037675;28;20464;-68
2022/03/05 05:46:27;;;;;;;16.77;10.60;;;3.90;73.30;;;;;;5021922;28;20439;-67
2022/03/05 05:48:52;;;;;;;19.53;10.70;;;3.90;73.30;;;;;;5039305;28;20512;-68
2022/03/05 05:51:18;;;;;;;18.77;11.80;;;4.00;73.00;;;;;;5037400;28;20264;-69
2022/03/05 05:53:43;;;;;;;16.47;9.90;;;4.10;73.00;;;;;;5035562;28;20188;-68
2022/03/05 05:56:09;;;;;;;15.50;9.73;;;4.10;73.00;;;;;;5037060;28;20718;-67
2022/03/05 05:58:35;;;;;;;15.50;11.60;;;4.20;73.30;;;;;;5039632;28;20195;-66
2022/03/05 06:01:00;;;;;;;16.17;10.50;;;4.20;73.30;;;;;;5036382;28;20434;-70
2022/03/05 06:03:27;;;;;;;18.40;11.20;;;3.90;74.00;;;;;;5036247;28;20563;-68
2022/03/05 06:05:52;;;;;;;17.10;10.77;;;3.90;73.90;;;;;;5039363;28;20192;-69
2022/03/05 06:08:18;;;;;;;14.40;10.57;;;3.80;75.30;;;;;;5041309;28;20473;-69
2022/03/05 06:10:43;;;;;;;16.40;10.00;;;3.90;74.90;;;;;;5040143;28;20243;-69
2022/03/05 06:13:09;;;;;;;19.93;11.17;;;4.00;74.80;;;;;;5042528;28;20408;-69
2022/03/05 06:15:35;;;;;;;17.27;10.33;;;3.90;74.70;;;;;;5040332;28;20224;-68
2022/03/05 06:18:00;;;;;;;17.83;11.10;;;3.90;75.50;;;;;;5039590;28;20203;-68
2022/03/05 06:20:26;;;;;;;15.83;10.07;;;4.00;75.40;;;;;;5041674;28;20211;-70
2022/03/05 06:22:52;;;;;;;20.47;11.20;;;4.10;75.40;;;;;;5041735;28;20313;-70
2022/03/05 06:25:18;;;;;;;16.73;10.57;;;4.10;75.40;;;;;;5040964;28;20958;-70
2022/03/05 06:27:44;;;;;;;19.37;10.77;;;4.20;75.20;;;;;;5039992;28;20302;-67
2022/03/05 06:30:11;;;;;;;17.77;10.87;;;4.10;75.20;;;;;;5039482;28;20207;-69
2022/03/05 06:32:36;;;;;;;17.37;9.93;;;3.90;75.50;;;;;;5038513;28;20907;-69
2022/03/05 06:35:05;;;;;;;18.77;9.97;;;4.00;75.70;;;;;;5040311;28;20423;-69
2022/03/05 06:37:31;;;;;;;20.17;10.53;;;4.00;76.00;;;;;;5040414;28;20434;-68
2022/03/05 06:39:56;;;;;;;16.60;10.80;;;4.10;75.90;;;;;;5040261;28;20461;-67
2022/03/05 06:42:22;;;;;;;18.67;10.67;;;4.10;75.20;;;;;;5040550;28;20442;-67
2022/03/05 06:44:48;;;;;;;18.40;11.00;;;4.20;75.50;;;;;;5039816;28;20215;-69
2022/03/05 06:47:13;;;;;;;14.20;10.00;;;4.10;75.20;;;;;;5041018;28;20554;-68
2022/03/05 06:49:39;;;;;;;16.90;10.30;;;4.00;76.10;;;;;;5039660;28;20279;-69
2022/03/05 06:52:05;;;;;;;18.80;11.47;;;3.80;76.50;;;;;;5040643;28;20649;-69
2022/03/05 06:54:30;;;;;;;19.40;11.57;;;3.70;77.00;;;;;;5040639;28;20210;-69
2022/03/05 06:56:56;;;;;;;17.83;10.23;;;3.80;77.20;;;;;;5041516;28;20438;-67
2022/03/05 06:59:22;;;;;;;16.60;11.30;;;3.70;77.00;;;;;;5040686;28;20287;-68
2022/03/05 07:01:47;;;;;;;14.40;9.63;;;3.80;76.90;;;;;;5040481;28;20199;-68
2022/03/05 07:04:13;;;;;;;12.00;9.63;;;3.80;77.50;;;;;;5038519;28;20179;-68
2022/03/05 07:06:38;;;;;;;14.00;9.47;;;3.80;77.10;;;;;;5021807;28;20191;-69
2022/03/05 07:09:05;;;;;;;13.97;10.10;;;3.80;77.20;;;;;;5042679;28;20311;-69
2022/03/05 07:11:31;;;;;;;20.90;11.20;;;3.80;76.90;;;;;;5040663;28;20214;-69
2022/03/05 07:13:57;;;;;;;18.30;10.53;;;3.80;76.90;;;;;;5038062;28;20728;-69
2022/03/05 07:16:22;;;;;;;16.50;10.40;;;3.90;76.90;;;;;;5040035;28;20955;-69
2022/03/05 07:18:48;;;;;;;20.97;10.77;;;3.80;77.00;;;;;;5042209;28;20576;-71
2022/03/05 07:21:14;;;;;;;17.07;10.10;;;3.70;77.20;;;;;;5040506;28;20246;-69
2022/03/05 07:23:39;;;;;;;19.07;10.83;;;3.80;77.70;;;;;;5039494;28;20185;-69
2022/03/05 07:26:05;;;;;;;15.77;11.67;;;3.80;77.70;;;;;;5037916;28;20187;-69
2022/03/05 07:28:31;;;;;;;15.10;11.07;;;3.90;77.60;;;;;;5037446;28;20201;-69
2022/03/05 07:30:56;;;;;;;16.67;10.90;;;3.90;77.60;;;;;;5037670;28;20445;-70
2022/03/05 07:33:23;;;;;;;17.23;11.37;;;3.90;77.40;;;;;;5041345;28;20191;-68
2022/03/05 07:35:48;;;;;;;22.67;12.37;;;3.80;77.20;;;;;;5035702;28;20654;-67
2022/03/05 07:38:14;;;;;;;18.40;10.77;;;4.00;77.10;;;;;;5035785;28;20457;-70
2022/03/05 07:40:40;;;;;;;18.37;11.03;;;4.00;77.00;;;;;;5039209;28;20288;-69
2022/03/05 07:43:05;;;;;;;18.27;11.10;;;4.00;76.60;;;;;;5040596;28;20267;-69
2022/03/05 07:45:31;;;;;;;19.50;11.37;;;3.90;76.50;;;;;;5038258;28;20277;-70
2022/03/05 07:47:56;;;;;;;19.17;10.70;;;4.00;76.60;;;;;;5040890;28;20640;-70
2022/03/05 07:50:22;;;;;;;16.60;10.50;;;4.10;76.40;;;;;;5039290;28;20212;-70
2022/03/05 07:52:48;;;;;;;19.53;11.13;;;4.10;76.20;;;;;;5039847;28;20613;-70
2022/03/05 07:55:13;;;;;;;16.50;10.27;;;4.30;76.20;;;;;;5036076;28;20672;-70
2022/03/05 07:57:39;;;;;;;18.90;11.60;;;4.30;75.60;;;;;;5038348;28;20185;-68
2022/03/05 08:00:06;;;;;;;23.00;13.27;;;4.30;75.60;;;;;;5037727;28;20223;-69
2022/03/05 08:02:32;;;;;;;17.00;11.10;;;4.30;75.80;;;;;;5036378;28;20204;-70
2022/03/05 08:04:58;;;;;;;16.13;10.77;;;4.40;75.50;;;;;;5039097;28;20442;-68
2022/03/05 08:07:24;;;;;;;16.80;10.50;;;4.40;75.10;;;;;;5033519;28;20467;-69
2022/03/05 08:09:51;;;;;;;15.97;10.40;;;4.50;75.00;;;;;;5039364;28;20222;-70
2022/03/05 08:12:16;;;;;;;24.03;11.40;;;4.60;74.30;;;;;;5039574;28;20537;-68
2022/03/05 08:14:44;;;;;;;16.83;11.60;;;4.60;74.60;;;;;;5037177;28;20435;-69
2022/03/05 08:17:11;;;;;;;20.83;11.73;;;4.60;74.40;;;;;;5034729;28;20219;-69
2022/03/05 08:19:37;;;;;;;20.13;12.40;;;4.60;74.70;;;;;;5022862;28;20527;-69
2022/03/05 08:22:03;;;;;;;18.07;12.87;;;4.50;74.70;;;;;;5024419;28;20472;-70
2022/03/05 08:24:29;;;;;;;19.27;12.60;;;4.70;74.90;;;;;;5038665;28;20214;-71
2022/03/05 08:26:54;;;;;;;19.93;12.37;;;4.80;74.80;;;;;;5038303;28;20438;-70
2022/03/05 08:29:20;;;;;;;16.73;10.43;;;4.80;74.20;;;;;;5040797;28;20322;-70
2022/03/05 08:31:45;;;;;;;17.07;11.20;;;4.90;74.20;;;;;;5038007;28;20183;-69
2022/03/05 08:34:11;;;;;;;20.47;13.60;;;4.90;73.70;;;;;;5034444;28;20198;-69
2022/03/05 08:36:37;;;;;;;23.53;12.87;;;4.90;73.40;;;;;;5035643;28;20186;-68
2022/03/05 08:39:03;;;;;;;19.30;12.50;;;5.00;73.40;;;;;;5034971;28;20573;-69
2022/03/05 08:41:28;;;;;;;20.80;12.90;;;5.00;73.40;;;;;;5037992;28;20480;-68
2022/03/05 08:43:54;;;;;;;18.93;11.90;;;5.00;73.00;;;;;;5031215;28;20200;-68
2022/03/05 08:46:20;;;;;;;20.27;12.90;;;5.10;73.20;;;;;;5016824;28;20196;-68
2022/03/05 08:48:46;;;;;;;21.93;12.77;;;5.10;73.40;;;;;;5035385;28;20211;-67
2022/03/05 08:51:11;;;;;;;24.13;13.50;;;5.30;73.00;;;;;;5034756;28;21051;-69
2022/03/05 08:53:37;;;;;;;22.60;13.07;;;5.30;72.70;;;;;;5017409;28;20630;-68
2022/03/05 08:56:03;;;;;;;20.40;14.17;;;5.30;72.50;;;;;;5034318;28;20433;-68
2022/03/05 08:58:29;;;;;;;21.93;12.60;;;5.40;72.20;;;;;;5035732;28;20508;-68
2022/03/05 09:00:59;;;;;;;21.43;12.40;;;5.30;71.40;;;;;;5034263;28;20470;-67
2022/03/05 09:03:25;;;;;;;17.60;12.93;;;5.30;71.50;;;;;;5038292;28;20191;-71
2022/03/05 09:05:51;;;;;;;19.90;12.67;;;5.40;71.40;;;;;;5039759;28;20440;-69
2022/03/05 09:08:18;;;;;;;24.03;13.80;;;5.50;71.30;;;;;;5034327;28;21448;-69
2022/03/05 09:10:44;;;;;;;21.37;12.90;;;5.60;71.20;;;;;;5029557;28;20230;-69
2022/03/05 09:13:09;;;;;;;21.37;13.20;;;5.70;70.70;;;;;;5038610;28;20464;-69
2022/03/05 09:15:35;;;;;;;20.73;13.13;;;5.80;70.60;;;;;;5041712;28;20183;-69
2022/03/05 09:18:01;;;;;;;21.97;13.37;;;5.90;70.10;;;;;;5035904;28;20192;-69
2022/03/05 09:20:26;;;;;;;20.93;12.93;;;5.90;69.30;;;;;;5030544;28;20844;-72
2022/03/05 09:22:52;;;;;;;22.50;13.40;;;5.80;69.80;;;;;;5038462;28;20184;-72
2022/03/05 09:25:18;;;;;;;18.30;11.70;;;5.80;69.80;;;;;;5038171;28;20202;-72
2022/03/05 09:27:45;;;;;;;20.70;12.67;;;5.90;69.90;;;;;;5038662;28;22631;-71
2022/03/05 09:30:11;;;;;;;19.70;11.63;;;6.10;69.60;;;;;;5038339;28;20859;-71
2022/03/05 09:32:37;;;;;;;17.10;11.33;;;6.10;69.10;;;;;;5037320;28;20443;-68
2022/03/05 09:35:03;;;;;;;17.43;10.70;;;6.20;68.50;;;;;;5040520;28;20434;-72
2022/03/05 09:37:30;;;;;;;16.70;11.73;;;6.20;68.10;;;;;;5039929;28;20440;-69
2022/03/05 09:39:59;;;;;;;20.63;14.80;;;6.20;67.60;;;;;;5039782;28;20457;-68
2022/03/05 09:42:25;;;;;;;22.70;12.70;;;6.20;68.80;;;;;;5037988;28;20493;-70
2022/03/05 09:44:52;;;;;;;18.10;12.23;;;6.30;68.30;;;;;;5041752;28;20434;-71
2022/03/05 09:47:18;;;;;;;16.17;12.07;;;6.40;67.90;;;;;;5038748;28;20542;-71
2022/03/05 09:49:44;;;;;;;18.73;11.30;;;6.40;67.50;;;;;;5044190;28;20453;-67
2022/03/05 09:52:10;;;;;;;17.03;11.83;;;6.50;67.00;;;;;;5043580;28;20449;-68
2022/03/05 09:54:36;;;;;;;20.40;12.83;;;6.60;66.70;;;;;;5040171;28;20651;-68
2022/03/05 09:57:09;;;;;;;19.17;11.27;;;6.70;66.50;;;;;;5042705;28;20450;-67
2022/03/05 09:59:34;;;;;;;18.40;12.10;;;6.70;65.00;;;;;;5042238;28;20547;-68
2022/03/05 10:02:00;;;;;;;21.33;11.67;;;6.70;64.00;;;;;;5044187;28;20579;-67
2022/03/05 10:04:26;;;;;;;18.80;11.23;;;6.80;64.50;;;;;;5040127;28;20197;-67
2022/03/05 10:07:12;;;;;;;18.60;11.03;;;6.80;63.80;;;;;;5045094;28;20311;-67
2022/03/05 10:09:40;;;;;;;24.33;13.07;;;6.90;64.40;;;;;;5043149;28;20211;-67
2022/03/05 10:12:27;;;;;;;20.20;13.17;;;6.90;63.30;;;;;;5043891;28;20441;-68
2022/03/05 10:15:22;;;;;;;17.70;10.83;;;6.80;61.90;;;;;;5042120;28;20464;-68
2022/03/05 10:17:55;;;;;;;13.10;9.37;;;6.90;62.10;;;;;;5015391;28;21772;-68
2022/03/05 10:20:32;;;;;;;15.97;10.80;;;7.00;61.10;;;;;;5043386;28;20480;-68
2022/03/05 10:22:59;;;;;;;16.40;9.80;;;7.00;61.20;;;;;;5036219;28;20528;-68
2022/03/05 10:25:43;;;;;;;15.43;10.20;;;7.10;60.50;;;;;;5036448;28;20916;-68
2022/03/05 10:28:26;;;;;;;16.07;9.13;;;7.20;60.50;;;;;;5038611;28;20503;-68
2022/03/05 10:31:03;;;;;;;18.93;9.47;;;7.30;59.30;;;;;;5040208;28;20454;-68
2022/03/05 10:33:33;;;;;;;12.70;8.60;;;7.40;59.20;;;;;;5039491;28;20465;-77
2022/03/05 10:36:07;;;;;;;13.33;8.63;;;7.50;58.90;;;;;;5026374;28;20421;-75
2022/03/05 10:38:44;;;;;;;13.17;7.97;;;7.50;57.70;;;;;;5039238;28;20445;-72
2022/03/05 10:41:10;;;;;;;12.47;8.03;;;7.50;56.90;;;;;;5041653;28;23064;-77
2022/03/05 10:43:36;;;;;;;12.30;8.10;;;7.60;57.10;;;;;;5039915;28;20481;-72
2022/03/05 10:46:02;;;;;;;11.97;7.33;;;7.60;55.80;;;;;;5039293;28;20442;-78
2022/03/05 10:48:32;;;;;;;11.43;7.87;;;7.70;55.70;;;;;;5036384;28;20958;-71
2022/03/05 10:51:04;;;;;;;12.93;9.50;;;7.70;55.80;;;;;;5038244;28;20198;-70
2022/03/05 10:53:41;;;;;;;14.37;8.90;;;7.80;55.30;;;;;;5040705;28;20431;-69
2022/03/05 10:56:30;;;;;;;11.37;7.70;;;7.80;55.70;;;;;;5037076;28;20436;-70
2022/03/05 10:59:16;;;;;;;10.10;7.53;;;8.10;55.60;;;;;;5037802;28;20514;-73
2022/03/05 11:01:43;;;;;;;13.50;7.40;;;8.10;54.20;;;;;;5038849;28;20533;-73
2022/03/05 11:04:11;;;;;;;11.63;7.50;;;8.00;53.40;;;;;;5025422;28;20481;-74
2022/03/05 11:06:44;;;;;;;10.17;7.20;;;8.00;53.50;;;;;;5036937;28;20445;-73
2022/03/05 11:09:12;;;;;;;10.33;7.00;;;8.00;53.00;;;;;;5038472;28;20476;-67
2022/03/05 11:11:40;;;;;;;8.40;5.93;;;8.10;52.00;;;;;;5038986;28;20462;-61
2022/03/05 11:14:10;;;;;;;8.50;6.70;;;8.10;51.20;;;;;;5017291;28;20450;-73
2022/03/05 11:16:36;;;;;;;7.70;5.93;;;8.00;51.70;;;;;;5033811;28;20461;-68
2022/03/05 11:19:02;;;;;;;9.27;5.97;;;8.10;51.20;;;;;;5032686;28;20478;-73
2022/03/05 11:21:29;;;;;;;8.00;5.83;;;8.10;51.10;;;;;;5039624;28;20517;-71
2022/03/05 11:23:55;;;;;;;7.37;5.83;;;8.10;50.40;;;;;;5039969;28;20853;-69
2022/03/05 11:26:22;;;;;;;7.87;5.30;;;8.20;49.90;;;;;;5038834;28;20786;-67
2022/03/05 11:28:49;;;;;;;9.63;6.13;;;8.20;50.30;;;;;;5035907;28;21693;-66
2022/03/05 11:31:19;;;;;;;6.03;5.40;;;8.20;50.00;;;;;;5034909;28;20438;-66
2022/03/05 11:33:47;;;;;;;7.60;6.23;;;8.20;49.60;;;;;;5022319;28;20447;-74
2022/03/05 11:36:25;;;;;;;8.40;6.10;;;8.30;50.00;;;;;;5040382;28;20537;-75
2022/03/05 11:39:05;;;;;;;10.40;6.50;;;8.40;50.20;;;;;;5037298;28;20434;-73
2022/03/05 11:41:31;;;;;;;15.57;7.10;;;8.50;50.20;;;;;;5040374;28;21069;-71
2022/03/05 11:44:17;;;;;;;10.00;6.83;;;8.50;51.10;;;;;;5038096;28;20433;-73
2022/03/05 11:46:43;;;;;;;8.83;7.00;;;8.60;51.60;;;;;;5022952;28;20841;-71
2022/03/05 11:49:13;;;;;;;12.97;8.27;;;8.70;50.90;;;;;;5036385;28;20830;-69
2022/03/05 11:51:53;;;;;;;12.33;8.33;;;8.70;51.30;;;;;;5040124;28;21145;-70
2022/03/05 11:54:19;;;;;;;12.70;8.50;;;8.80;51.80;;;;;;5037175;28;20449;-72
2022/03/05 11:57:08;;;;;;;9.90;8.00;;;8.90;53.00;;;;;;5022414;28;20434;-73
2022/03/05 11:59:36;;;;;;;9.67;8.13;;;9.10;52.30;;;;;;5036658;28;20231;-75
2022/03/05 12:02:02;;;;;;;13.07;9.23;;;9.20;52.00;;;;;;5037616;28;20465;-75
2022/03/05 12:04:29;;;;;;;17.50;8.97;;;9.20;51.70;;;;;;5036709;28;20482;-73
2022/03/05 12:07:10;;;;;;;13.90;9.53;;;9.20;52.10;;;;;;5038422;28;20842;-75
2022/03/05 12:09:53;;;;;;;10.30;7.80;;;9.40;51.90;;;;;;5033510;28;20486;-74
2022/03/05 12:12:20;;;;;;;11.83;8.63;;;9.80;51.60;;;;;;5038352;28;20413;-74
2022/03/05 12:15:01;;;;;;;11.20;8.20;;;10.40;50.90;;;;;;5039915;28;20427;-71
2022/03/05 12:17:36;;;;;;;10.20;8.80;;;11.30;49.20;;;;;;5033858;28;20500;-71
2022/03/05 12:20:06;;;;;;;10.27;7.80;;;12.40;48.10;;;;;;5040458;28;20511;-71
2022/03/05 12:22:32;;;;;;;13.20;8.07;;;13.30;46.50;;;;;;5039094;28;20430;-71
2022/03/05 12:24:57;;;;;;;11.40;8.20;;;14.00;44.60;;;;;;5031099;28;20916;-72
2022/03/05 12:27:27;;;;;;;8.97;7.87;;;14.90;44.40;;;;;;5035121;28;21040;-73
2022/03/05 12:29:53;;;;;;;10.57;7.83;;;14.70;43.10;;;;;;5036888;28;20226;-75
2022/03/05 12:32:20;;;;;;;10.50;8.30;;;15.20;42.80;;;;;;5039344;28;20422;-75
2022/03/05 12:34:46;;;;;;;11.40;8.30;;;15.50;41.90;;;;;;5033900;28;20231;-76
2022/03/05 12:37:12;;;;;;;11.37;8.83;;;16.50;40.20;;;;;;5032739;28;20947;-73